createdAt,value
2019-02-04T00:00:52.812Z,95.17
2019-02-04T00:03:35.953Z,95.26
2019-02-04T00:06:06.925Z,95.30
2019-02-04T00:08:37.912Z,95.36
2019-02-04T00:11:09.017Z,95.44
2019-02-04T00:13:40.035Z,95.56
2019-02-04T00:16:11.088Z,95.63
2019-02-04T00:18:42.077Z,95.67
2019-02-04T00:21:13.042Z,95.67
2019-02-04T00:23:44.046Z,95.76
2019-02-04T00:26:15.408Z,95.80
2019-02-04T00:28:46.314Z,95.73
2019-02-04T00:31:17.305Z,95.80
2019-02-04T00:33:48.403Z,95.83
2019-02-04T00:36:19.324Z,95.88
2019-02-04T00:38:50.290Z,95.88
2019-02-04T00:41:21.286Z,96.02
2019-02-04T00:43:52.388Z,95.87
2019-02-04T00:46:23.578Z,95.62
2019-02-04T00:48:54.524Z,95.34
2019-02-04T00:51:25.577Z,95.19
2019-02-04T00:53:56.604Z,95.15
2019-02-04T00:56:27.655Z,95.21
2019-02-04T00:58:58.594Z,95.20
2019-02-04T01:01:29.517Z,95.26
2019-02-04T01:04:00.541Z,95.23
2019-02-04T01:06:31.623Z,95.31
2019-02-04T01:09:02.747Z,95.40
2019-02-04T01:11:33.766Z,95.44
2019-02-04T01:14:04.826Z,95.53
2019-02-04T01:16:35.791Z,95.45
2019-02-04T01:19:06.970Z,95.36
2019-02-04T01:21:38.330Z,95.31
2019-02-04T01:24:09.598Z,95.31
2019-02-04T01:26:40.648Z,95.29
2019-02-04T01:29:11.774Z,95.30
2019-02-04T01:31:42.713Z,95.23
2019-02-04T01:34:14.044Z,95.24
2019-02-04T01:36:45.079Z,95.20
2019-02-04T01:39:16.058Z,95.24
2019-02-04T01:41:47.067Z,95.28
2019-02-04T01:44:18.468Z,95.31
2019-02-04T01:46:51.512Z,95.55
2019-02-04T01:49:22.144Z,95.58
2019-02-04T01:51:53.140Z,95.50
2019-02-04T01:54:24.434Z,95.45
2019-02-04T01:56:55.387Z,95.43
2019-02-04T01:59:26.498Z,95.46
2019-02-04T02:01:57.870Z,95.58
2019-02-04T02:04:28.851Z,95.51
2019-02-04T02:07:00.177Z,95.39
2019-02-04T02:09:31.225Z,95.37
2019-02-04T02:12:02.512Z,95.34
2019-02-04T02:14:33.533Z,95.36
2019-02-04T02:17:04.857Z,95.32
2019-02-04T02:19:35.890Z,95.37
2019-02-04T02:22:06.923Z,95.49
2019-02-04T02:24:38.005Z,95.52
2019-02-04T02:27:08.949Z,95.58
2019-02-04T02:29:39.958Z,95.72
2019-02-04T02:32:11.258Z,95.73
2019-02-04T02:34:42.248Z,95.80
2019-02-04T02:37:13.294Z,95.86
2019-02-04T02:39:44.299Z,95.81
2019-02-04T02:42:15.668Z,95.80
2019-02-04T02:44:46.701Z,95.88
2019-02-04T02:47:17.704Z,96.04
2019-02-04T02:49:48.757Z,96.00
2019-02-04T02:52:19.889Z,96.00
2019-02-04T02:54:51.112Z,95.99
2019-02-04T02:57:22.141Z,96.02
2019-02-04T02:59:53.131Z,95.96
2019-02-04T03:02:24.170Z,96.02
2019-02-04T03:04:55.179Z,96.07
2019-02-04T03:07:26.195Z,96.08
2019-02-04T03:09:57.295Z,96.14
2019-02-04T03:12:28.231Z,96.12
2019-02-04T03:14:59.243Z,96.18
2019-02-04T03:17:31.576Z,96.10
2019-02-04T03:20:02.555Z,96.01
2019-02-04T03:22:33.561Z,96.06
2019-02-04T03:25:05.187Z,96.02
2019-02-04T03:27:36.211Z,96.00
2019-02-04T03:30:16.089Z,95.79
2019-02-04T03:32:47.072Z,95.58
2019-02-04T03:35:18.197Z,95.34
2019-02-04T03:37:52.219Z,94.89
2019-02-04T03:40:25.101Z,94.69
2019-02-04T03:42:56.107Z,94.30
2019-02-04T03:45:27.052Z,93.98
2019-02-04T03:48:06.425Z,93.58
2019-02-04T03:50:30.955Z,93.06
2019-02-04T03:53:01.933Z,92.77
2019-02-04T03:55:32.938Z,92.67
2019-02-04T03:58:03.980Z,92.63
2019-02-04T04:00:37.476Z,92.41
2019-02-04T04:03:09.027Z,92.39
2019-02-04T04:05:40.333Z,92.38
2019-02-04T04:08:11.416Z,92.21
2019-02-04T04:10:42.390Z,92.22
2019-02-04T04:13:13.305Z,92.23
2019-02-04T04:15:44.707Z,92.08
2019-02-04T04:18:16.320Z,92.30
2019-02-04T04:20:47.259Z,92.47
2019-02-04T04:23:18.487Z,92.52
2019-02-04T04:25:49.524Z,92.38
2019-02-04T04:28:20.687Z,92.20
2019-02-04T04:30:51.612Z,92.13
2019-02-04T04:33:22.719Z,92.08
2019-02-04T04:35:53.734Z,92.09
2019-02-04T04:38:24.830Z,91.94
2019-02-04T04:40:55.848Z,91.84
2019-02-04T04:43:26.833Z,91.80
2019-02-04T04:45:57.828Z,91.78
2019-02-04T04:48:29.223Z,91.67
2019-02-04T04:51:00.209Z,91.87
2019-02-04T04:53:31.109Z,91.97
2019-02-04T04:56:02.150Z,92.08
2019-02-04T04:58:33.136Z,92.18
2019-02-04T05:01:04.227Z,92.38
2019-02-04T05:03:35.220Z,92.61
2019-02-04T05:06:06.209Z,92.48
2019-02-04T05:08:37.213Z,92.26
2019-02-04T05:11:08.261Z,92.18
2019-02-04T05:13:39.452Z,92.24
2019-02-04T05:16:10.783Z,92.33
2019-02-04T05:18:41.860Z,92.47
2019-02-04T05:21:12.789Z,92.64
2019-02-04T05:23:43.793Z,92.96
2019-02-04T05:26:14.836Z,93.05
2019-02-04T05:28:46.907Z,93.22
2019-02-04T05:31:18.162Z,93.19
2019-02-04T05:33:49.247Z,93.29
2019-02-04T05:36:20.287Z,93.37
2019-02-04T05:38:51.548Z,93.33
2019-02-04T05:41:23.816Z,93.39
2019-02-04T05:43:55.120Z,93.29
2019-02-04T05:46:26.156Z,93.23
2019-02-04T05:48:57.353Z,93.42
2019-02-04T05:51:28.639Z,93.36
2019-02-04T05:53:59.730Z,93.42
2019-02-04T05:56:30.709Z,93.69
2019-02-04T05:59:01.712Z,93.77
2019-02-04T06:01:32.959Z,93.82
2019-02-04T06:04:03.946Z,94.00
2019-02-04T06:06:34.853Z,94.01
2019-02-04T06:09:08.632Z,94.10
2019-02-04T06:11:39.607Z,94.22
2019-02-04T06:14:10.569Z,94.24
2019-02-04T06:16:42.178Z,94.24
2019-02-04T06:19:13.142Z,94.30
2019-02-04T06:21:44.429Z,94.25
2019-02-04T06:24:15.421Z,94.12
2019-02-04T06:26:46.390Z,93.93
2019-02-04T06:29:17.278Z,93.67
2019-02-04T06:31:48.291Z,93.64
2019-02-04T06:34:19.599Z,93.46
2019-02-04T06:36:50.518Z,93.11
2019-02-04T06:39:21.557Z,93.04
2019-02-04T06:41:52.872Z,93.01
2019-02-04T06:44:23.822Z,92.95
2019-02-04T06:46:54.849Z,93.00
2019-02-04T06:49:25.754Z,93.07
2019-02-04T06:51:56.668Z,93.15
2019-02-04T06:54:27.771Z,93.33
2019-02-04T06:56:58.733Z,93.27
2019-02-04T06:59:29.733Z,93.45
2019-02-04T07:02:01.043Z,93.36
2019-02-04T07:04:31.946Z,92.80
2019-02-04T07:07:02.876Z,92.64
2019-02-04T07:09:33.916Z,92.54
2019-02-04T07:12:04.831Z,92.44
2019-02-04T07:14:36.027Z,92.33
2019-02-04T07:17:07.364Z,92.31
2019-02-04T07:19:38.299Z,92.18
2019-02-04T07:22:09.673Z,91.86
2019-02-04T07:24:42.916Z,91.46
2019-02-04T07:27:13.615Z,91.17
2019-02-04T07:29:44.957Z,90.68
2019-02-04T07:32:15.936Z,90.25
2019-02-04T07:34:46.850Z,89.82
2019-02-04T07:37:18.139Z,89.40
2019-02-04T07:39:49.642Z,88.91
2019-02-04T07:42:20.652Z,86.37
2019-02-04T07:44:51.719Z,82.86
2019-02-04T07:47:22.979Z,78.93
2019-02-04T07:49:53.907Z,76.78
2019-02-04T07:52:25.289Z,75.65
2019-02-04T07:54:56.765Z,72.89
2019-02-04T07:57:27.684Z,71.12
2019-02-04T07:59:58.775Z,68.63
2019-02-04T08:02:30.376Z,67.17
2019-02-04T08:05:01.868Z,65.69
2019-02-04T08:07:33.163Z,64.26
2019-02-04T08:10:04.191Z,63.58
2019-02-04T08:12:35.160Z,62.48
2019-02-04T08:15:08.914Z,62.07
2019-02-04T08:17:40.198Z,62.12
2019-02-04T08:20:11.528Z,60.65
2019-02-04T08:22:42.564Z,59.65
2019-02-04T08:25:14.667Z,58.95
2019-02-04T08:27:45.689Z,58.53
2019-02-04T08:30:24.032Z,58.60
2019-02-04T08:32:55.055Z,59.03
2019-02-04T08:35:26.309Z,58.68
2019-02-04T08:37:57.513Z,57.29
2019-02-04T08:40:29.084Z,57.42
2019-02-04T08:43:00.137Z,56.89
2019-02-04T08:45:31.192Z,55.89
2019-02-04T08:48:02.162Z,55.76
2019-02-04T08:50:33.138Z,56.23
2019-02-04T08:53:04.151Z,55.85
2019-02-04T08:55:35.837Z,54.66
2019-02-04T08:58:07.371Z,54.84
2019-02-04T09:00:38.699Z,55.21
2019-02-04T09:03:09.962Z,54.77
2019-02-04T09:05:41.103Z,55.53
2019-02-04T09:08:12.170Z,55.09
2019-02-04T09:10:43.161Z,54.54
2019-02-04T09:13:14.146Z,54.37
2019-02-04T09:15:45.179Z,54.56
2019-02-04T09:18:16.465Z,54.52
2019-02-04T09:20:47.741Z,54.27
2019-02-04T09:23:18.955Z,54.31
2019-02-04T09:25:49.954Z,56.06
2019-02-04T09:28:20.921Z,56.84
2019-02-04T09:30:51.949Z,56.96
2019-02-04T09:33:22.905Z,56.88
2019-02-04T09:35:54.503Z,59.10
2019-02-04T09:38:25.886Z,59.89
2019-02-04T09:40:56.843Z,59.78
2019-02-04T09:43:27.756Z,60.93
2019-02-04T09:45:58.769Z,61.01
2019-02-04T09:48:29.847Z,61.31
2019-02-04T09:51:03.130Z,61.80
2019-02-04T09:53:34.442Z,61.63
2019-02-04T09:56:05.702Z,62.09
2019-02-04T09:58:36.674Z,62.67
2019-02-04T10:01:08.059Z,62.16
2019-02-04T10:03:39.028Z,62.57
2019-02-04T10:06:09.956Z,63.25
2019-02-04T10:08:40.963Z,63.90
2019-02-04T10:11:11.862Z,63.89
2019-02-04T10:13:43.159Z,64.21
2019-02-04T10:16:14.378Z,64.75
2019-02-04T10:18:45.321Z,65.78
2019-02-04T10:21:16.723Z,65.66
2019-02-04T10:23:47.708Z,65.81
2019-02-04T10:26:18.718Z,66.01
2019-02-04T10:28:50.044Z,65.56
2019-02-04T10:31:21.117Z,65.25
2019-02-04T10:33:52.051Z,65.23
2019-02-04T10:36:23.227Z,65.26
2019-02-04T10:38:54.146Z,65.04
2019-02-04T10:41:25.149Z,65.22
2019-02-04T10:43:56.177Z,65.25
2019-02-04T10:46:27.159Z,65.26
2019-02-04T10:48:58.110Z,65.12
2019-02-04T10:51:29.124Z,65.14
2019-02-04T10:54:00.114Z,64.91
2019-02-04T10:56:31.087Z,64.85
2019-02-04T10:59:02.176Z,65.42
2019-02-04T11:01:33.221Z,64.78
2019-02-04T11:04:04.103Z,64.68
2019-02-04T11:06:35.316Z,64.81
2019-02-04T11:09:09.604Z,64.61
2019-02-04T11:11:40.622Z,64.79
2019-02-04T11:14:15.567Z,65.21
2019-02-04T11:16:46.733Z,65.02
2019-02-04T11:19:18.091Z,65.56
2019-02-04T11:21:49.033Z,65.07
2019-02-04T11:24:20.169Z,65.03
2019-02-04T11:26:51.195Z,65.11
2019-02-04T11:29:22.176Z,64.63
2019-02-04T11:31:53.196Z,64.74
2019-02-04T11:34:24.356Z,65.01
2019-02-04T11:36:55.265Z,65.24
2019-02-04T11:39:26.375Z,65.08
2019-02-04T11:41:57.612Z,65.35
2019-02-04T11:44:28.638Z,65.18
2019-02-04T11:46:59.641Z,65.80
2019-02-04T11:49:30.898Z,65.88
2019-02-04T11:52:01.880Z,65.54
2019-02-04T11:54:32.906Z,65.59
2019-02-04T11:57:03.831Z,65.62
2019-02-04T11:59:34.787Z,66.54
2019-02-04T12:02:06.319Z,66.82
2019-02-04T12:04:37.210Z,66.32
2019-02-04T12:07:08.207Z,65.79
2019-02-04T12:09:39.417Z,66.64
2019-02-04T12:12:10.619Z,66.21
2019-02-04T12:14:41.863Z,66.46
2019-02-04T12:17:12.864Z,65.75
2019-02-04T12:19:43.768Z,66.46
2019-02-04T12:22:15.341Z,66.08
2019-02-04T12:24:46.380Z,66.26
2019-02-04T12:27:17.261Z,66.15
2019-02-04T12:29:49.611Z,66.69
2019-02-04T12:32:20.962Z,66.83
2019-02-04T12:34:52.151Z,67.53
2019-02-04T12:37:23.124Z,66.90
2019-02-04T12:39:54.147Z,66.96
2019-02-04T12:42:25.461Z,66.28
2019-02-04T12:44:56.792Z,66.13
2019-02-04T12:47:28.242Z,66.06
2019-02-04T12:49:59.495Z,66.03
2019-02-04T12:52:30.485Z,65.98
2019-02-04T12:55:01.416Z,66.19
2019-02-04T12:57:32.382Z,66.05
2019-02-04T13:00:03.943Z,66.07
2019-02-04T13:02:35.019Z,65.77
2019-02-04T13:05:07.300Z,65.53
2019-02-04T13:07:38.262Z,65.96
2019-02-04T13:10:11.256Z,66.32
2019-02-04T13:12:42.560Z,65.62
2019-02-04T13:15:17.127Z,65.71
2019-02-04T13:17:48.316Z,65.70
2019-02-04T13:20:21.274Z,65.68
2019-02-04T13:22:52.362Z,66.18
2019-02-04T13:25:26.281Z,66.32
2019-02-04T13:27:57.346Z,66.67
2019-02-04T13:30:31.283Z,66.73
2019-02-04T13:33:02.544Z,66.31
2019-02-04T13:35:33.527Z,65.67
2019-02-04T13:38:05.284Z,66.00
2019-02-04T13:40:36.160Z,65.99
2019-02-04T13:43:07.679Z,66.02
2019-02-04T13:45:38.682Z,65.88
2019-02-04T13:48:09.777Z,66.10
2019-02-04T13:50:41.179Z,65.65
2019-02-04T13:53:12.764Z,65.14
2019-02-04T13:55:44.131Z,65.10
2019-02-04T13:58:15.117Z,64.43
2019-02-04T14:00:46.287Z,64.30
2019-02-04T14:03:18.021Z,64.41
2019-02-04T14:05:49.134Z,64.37
2019-02-04T14:08:20.166Z,64.59
2019-02-04T14:10:51.122Z,64.74
2019-02-04T14:13:22.198Z,64.16
2019-02-04T14:15:53.281Z,64.16
2019-02-04T14:18:26.485Z,63.73
2019-02-04T14:20:57.218Z,63.95
2019-02-04T14:23:28.150Z,64.63
2019-02-04T14:25:59.510Z,65.08
2019-02-04T14:28:31.525Z,65.10
2019-02-04T14:31:02.563Z,65.77
2019-02-04T14:33:33.483Z,65.69
2019-02-04T14:36:04.543Z,65.91
2019-02-04T14:38:35.903Z,65.48
2019-02-04T14:41:06.979Z,64.81
2019-02-04T14:44:05.514Z,64.79
2019-02-04T14:46:50.320Z,64.57
2019-02-04T14:50:22.529Z,63.98
2019-02-04T14:53:37.472Z,64.37
2019-02-04T14:56:28.322Z,63.84
2019-02-04T14:59:56.869Z,63.60
2019-02-04T15:03:36.467Z,63.37
2019-02-04T15:07:04.728Z,63.73
2019-02-04T15:10:05.348Z,64.65
2019-02-04T15:13:30.619Z,64.29
2019-02-04T15:16:40.564Z,64.45
2019-02-04T15:20:29.222Z,64.59
2019-02-04T15:24:08.778Z,65.05
2019-02-04T15:27:23.742Z,64.36
2019-02-04T15:30:29.902Z,63.66
2019-02-04T15:34:00.921Z,63.08
2019-02-04T15:37:11.864Z,62.98
2019-02-04T15:40:37.143Z,62.35
2019-02-04T15:44:06.660Z,62.49
2019-02-04T15:46:53.895Z,62.62
2019-02-04T15:50:07.914Z,62.84
2019-02-04T15:52:45.668Z,63.11
2019-02-04T15:55:16.376Z,63.01
2019-02-04T15:57:47.340Z,63.15
2019-02-04T16:00:18.763Z,63.31
2019-02-04T16:02:49.728Z,63.66
2019-02-04T16:05:21.175Z,64.31
2019-02-04T16:07:54.946Z,64.67
2019-02-04T16:10:25.966Z,64.54
2019-02-04T16:12:57.034Z,64.40
2019-02-04T16:15:28.034Z,64.54
2019-02-04T16:17:59.091Z,64.12
2019-02-04T16:20:30.103Z,64.25
2019-02-04T16:23:01.042Z,64.35
2019-02-04T16:25:32.200Z,64.21
2019-02-04T16:28:03.467Z,64.05
2019-02-04T16:30:34.843Z,63.91
2019-02-04T16:33:06.375Z,64.14
2019-02-04T16:35:37.355Z,63.87
2019-02-04T16:38:08.920Z,63.28
2019-02-04T16:40:39.861Z,63.44
2019-02-04T16:43:10.737Z,63.48
2019-02-04T16:45:41.923Z,63.46
2019-02-04T16:48:12.998Z,63.60
2019-02-04T16:50:44.214Z,63.38
2019-02-04T16:53:15.189Z,63.46
2019-02-04T16:55:46.180Z,63.65
2019-02-04T16:58:17.074Z,63.57
2019-02-04T17:00:48.107Z,64.17
2019-02-04T17:03:19.097Z,64.49
2019-02-04T17:05:50.495Z,64.22
2019-02-04T17:08:21.561Z,64.94
2019-02-04T17:10:52.764Z,64.63
2019-02-04T17:13:23.690Z,64.91
2019-02-04T17:15:55.239Z,65.03
2019-02-04T17:18:26.284Z,65.50
2019-02-04T17:20:57.634Z,65.66
2019-02-04T17:23:28.940Z,65.98
2019-02-04T17:25:59.928Z,66.28
2019-02-04T17:28:30.933Z,66.62
2019-02-04T17:31:01.881Z,67.00
2019-02-04T17:33:33.703Z,67.22
2019-02-04T17:36:05.519Z,67.81
2019-02-04T17:38:36.922Z,68.54
2019-02-04T17:41:11.185Z,68.29
2019-02-04T17:43:42.228Z,68.88
2019-02-04T17:46:13.171Z,67.98
2019-02-04T17:48:44.450Z,67.18
2019-02-04T17:51:15.426Z,66.52
2019-02-04T17:53:47.343Z,66.20
2019-02-04T17:56:19.046Z,65.50
2019-02-04T17:58:52.110Z,65.66
2019-02-04T18:01:23.831Z,65.69
2019-02-04T18:03:55.150Z,65.09
2019-02-04T18:06:26.576Z,65.07
2019-02-04T18:08:57.740Z,64.95
2019-02-04T18:11:28.707Z,65.25
2019-02-04T18:14:00.328Z,64.71
2019-02-04T18:16:31.397Z,64.56
2019-02-04T18:19:02.517Z,64.27
2019-02-04T18:21:34.869Z,63.98
2019-02-04T18:24:07.995Z,64.11
2019-02-04T18:26:41.183Z,64.21
2019-02-04T18:29:12.993Z,64.24
2019-02-04T18:31:44.857Z,63.62
2019-02-04T18:34:18.456Z,63.29
2019-02-04T18:36:49.363Z,62.89
2019-02-04T18:39:20.636Z,63.39
2019-02-04T18:41:55.596Z,63.35
2019-02-04T18:44:25.668Z,63.11
2019-02-04T18:46:57.247Z,63.33
2019-02-04T18:49:31.022Z,63.06
2019-02-04T18:52:02.004Z,63.15
2019-02-04T18:54:35.633Z,63.40
2019-02-04T18:57:08.669Z,63.20
2019-02-04T18:59:39.875Z,62.98
2019-02-04T19:02:12.959Z,62.93
2019-02-04T19:04:44.235Z,62.70
2019-02-04T19:07:15.210Z,62.32
2019-02-04T19:09:46.583Z,61.84
2019-02-04T19:12:17.812Z,61.87
2019-02-04T19:14:54.759Z,62.05
2019-02-04T19:17:26.384Z,61.90
2019-02-04T19:19:59.099Z,61.80
2019-02-04T19:22:31.409Z,61.77
2019-02-04T19:25:03.614Z,61.78
2019-02-04T19:27:34.612Z,61.54
2019-02-04T19:30:13.421Z,62.04
2019-02-04T19:32:44.743Z,62.16
2019-02-04T19:35:31.022Z,61.93
2019-02-04T19:38:02.844Z,61.67
2019-02-04T19:40:33.882Z,62.27
2019-02-04T19:43:06.402Z,62.27
2019-02-04T19:45:38.850Z,61.93
2019-02-04T19:48:10.677Z,62.02
2019-02-04T19:50:42.182Z,62.24
2019-02-04T19:53:14.029Z,62.14
2019-02-04T19:55:45.346Z,62.51
2019-02-04T19:58:16.651Z,62.73
2019-02-04T20:00:48.524Z,63.08
2019-02-04T20:03:21.782Z,62.98
2019-02-04T20:05:52.999Z,62.93
2019-02-04T20:08:24.087Z,63.24
2019-02-04T20:10:55.912Z,63.62
2019-02-04T20:13:27.038Z,63.53
2019-02-04T20:15:58.239Z,63.81
2019-02-04T20:18:29.644Z,63.71
2019-02-04T20:21:00.788Z,63.34
2019-02-04T20:23:32.074Z,63.74
2019-02-04T20:26:03.392Z,63.93
2019-02-04T20:28:34.300Z,64.04
2019-02-04T20:31:07.272Z,64.24
2019-02-04T20:34:16.672Z,63.65
2019-02-04T20:36:48.338Z,63.90
2019-02-04T20:39:19.677Z,63.71
2019-02-04T20:41:53.130Z,63.26
2019-02-04T20:44:24.136Z,63.40
2019-02-04T20:46:55.678Z,63.45
2019-02-04T20:49:26.788Z,63.30
2019-02-04T20:51:57.850Z,63.15
2019-02-04T20:54:29.171Z,62.92
2019-02-04T20:57:00.659Z,63.10
2019-02-04T20:59:31.906Z,63.13
2019-02-04T21:02:03.538Z,62.98
2019-02-04T21:04:34.533Z,63.52
2019-02-04T21:07:05.714Z,63.21
2019-02-04T21:09:36.722Z,62.63
2019-02-04T21:12:09.582Z,62.87
2019-02-04T21:14:40.587Z,62.79
2019-02-04T21:17:11.576Z,62.87
2019-02-04T21:19:44.178Z,62.88
2019-02-04T21:22:16.276Z,63.21
2019-02-04T21:24:56.305Z,63.58
2019-02-04T21:27:19.883Z,63.06
2019-02-04T21:29:51.461Z,63.28
2019-02-04T21:32:22.841Z,63.39
2019-02-04T21:34:55.883Z,63.71
2019-02-04T21:37:26.996Z,63.46
2019-02-04T21:39:58.262Z,63.67
2019-02-04T21:42:29.166Z,63.54
2019-02-04T21:45:00.339Z,63.56
2019-02-04T21:47:31.398Z,63.32
2019-02-04T21:50:02.421Z,63.56
2019-02-04T21:52:35.975Z,62.98
2019-02-04T21:55:08.955Z,63.13
2019-02-04T21:57:39.886Z,63.17
2019-02-04T22:00:16.242Z,63.60
2019-02-04T22:02:47.573Z,62.81
2019-02-04T22:05:19.616Z,62.78
2019-02-04T22:07:50.656Z,62.71
2019-02-04T22:10:23.912Z,61.77
2019-02-04T22:12:55.248Z,62.16
2019-02-04T22:15:26.265Z,61.94
2019-02-04T22:17:57.561Z,62.65
2019-02-04T22:20:28.698Z,61.40
2019-02-04T22:22:59.779Z,62.12
2019-02-04T22:25:30.798Z,61.98
2019-02-04T22:28:01.763Z,61.54
2019-02-04T22:30:32.746Z,60.79
2019-02-04T22:33:04.070Z,60.67
2019-02-04T22:35:35.081Z,59.91
2019-02-04T22:38:06.608Z,60.18
2019-02-04T22:40:38.177Z,60.39
2019-02-04T22:43:09.150Z,60.18
2019-02-04T22:45:40.152Z,60.58
2019-02-04T22:48:11.065Z,60.56
2019-02-04T22:50:42.506Z,60.48
2019-02-04T22:53:13.504Z,60.84
2019-02-04T22:55:44.419Z,60.87
2019-02-04T22:58:15.778Z,61.34
2019-02-04T23:01:29.333Z,61.28
2019-02-04T23:04:00.327Z,61.69
2019-02-04T23:06:31.616Z,61.97
2019-02-04T23:09:03.892Z,62.12
2019-02-04T23:11:34.933Z,61.90
2019-02-04T23:14:06.737Z,61.48
2019-02-04T23:16:38.071Z,61.60
2019-02-04T23:19:09.849Z,61.56
2019-02-04T23:21:41.220Z,61.48
2019-02-04T23:24:12.314Z,61.80
2019-02-04T23:26:43.427Z,62.05
2019-02-04T23:29:14.322Z,61.87
2019-02-04T23:31:45.266Z,61.95
2019-02-04T23:34:16.555Z,62.14
2019-02-04T23:36:47.841Z,62.63
2019-02-04T23:39:19.148Z,62.55
2019-02-04T23:41:50.160Z,62.66
2019-02-04T23:44:21.249Z,62.87
2019-02-04T23:46:52.556Z,63.01
2019-02-04T23:49:23.594Z,63.51
2019-02-04T23:51:54.603Z,63.62
2019-02-04T23:54:25.951Z,63.95
2019-02-04T23:56:56.913Z,63.99
2019-02-04T23:59:28.207Z,64.10
